Terminal Aerodrome Forecast
Issued by NWS Jacksonville, FL

Home | Current Version | Previous Version | Text Only | Print | Product List | Glossary On
Versions: 1 2 3 4 5 6 7 8 9 10 11 12 13 14 15 16 17
000
FTUS42 KJAX 301120
TAFJAX
TAF
KJAX 301120Z 3012/3112 09006KT P6SM VCSH SCT020 BKN030
      TEMPO 3012/3015 3SM -SHRA BKN020
     FM301700 09012KT P6SM SCT025
     FM310100 12005KT P6SM SCT020=

USA.gov is the U.S. government's official web portal to all federal, state and local government web resources and services.